SMZO/ORG METAR and TAF weather

Enter ICAO airport designator
Station Type Date Time Source
SMZO METAR 2019/06/19 00:00 UTC NOAA

SMZO 190000Z 04004KT 9999 FEW010 SCT025 26/23 Q1013 NOSIG


Station Type Date Time Source
SMZO Decoded METAR 2019/06/19 00:00 UTC NOAA

Station name not available
Jun 18, 2019 - 08:00 PM EDT / 2019.06.19 0000 UTC
Wind: from the NE (040 degrees) at 5 MPH (4 KT):0
Visibility: greater than 7 mile(s):0
Sky conditions: partly cloudy
Temperature: 78 F (26 C)
Dew Point: 73 F (23 C)
Relative Humidity: 83%
Pressure (altimeter): 29.91 in. Hg (1013 hPa)
ob: SMZO 190000Z 04004KT 9999 FEW010 SCT025 26/23 Q1013 NOSIG
cycle: 0

Station Type Date Time Source
SMZO TAF 2019/06/18 18:24 UTC NOAA

TAF TAF SMZO 181600Z 1818/1918 10010KT 9999 SCT025 TX32/1917Z TN23/1909Z PROB40
TEMPO 1818/1820 4000 SHRA FEW015CB SCT020
BECMG 1901/1903 05003KT PROB30
TEMPO 1908/1910 3000 BR SCT005
FM191100 09006KT 9999 SCT012

Example: see airport list